sensor_id;sensor_type;location;lat;lon;timestamp;P1;durP1;ratioP1;P2;durP2;ratioP2
6947;SDS011;3513;47.664;9.162;2023-04-03T00:01:28;6.30;;;5.20;;
6947;SDS011;3513;47.664;9.162;2023-04-03T00:03:54;7.37;;;5.70;;
6947;SDS011;3513;47.664;9.162;2023-04-03T00:06:20;7.90;;;4.70;;
6947;SDS011;3513;47.664;9.162;2023-04-03T00:08:47;5.40;;;4.53;;
6947;SDS011;3513;47.664;9.162;2023-04-03T00:11:13;5.67;;;5.00;;
6947;SDS011;3513;47.664;9.162;2023-04-03T00:13:40;5.93;;;4.90;;
6947;SDS011;3513;47.664;9.162;2023-04-03T00:16:06;5.50;;;4.60;;
6947;SDS011;3513;47.664;9.162;2023-04-03T00:18:33;7.40;;;4.80;;
6947;SDS011;3513;47.664;9.162;2023-04-03T00:20:58;7.53;;;5.00;;
6947;SDS011;3513;47.664;9.162;2023-04-03T00:23:27;7.13;;;5.40;;
6947;SDS011;3513;47.664;9.162;2023-04-03T00:25:53;10.10;;;6.23;;
6947;SDS011;3513;47.664;9.162;2023-04-03T00:28:18;9.10;;;5.90;;
6947;SDS011;3513;47.664;9.162;2023-04-03T00:30:45;5.50;;;4.80;;
6947;SDS011;3513;47.664;9.162;2023-04-03T00:33:14;6.77;;;5.60;;
6947;SDS011;3513;47.664;9.162;2023-04-03T00:35:40;7.00;;;5.60;;
6947;SDS011;3513;47.664;9.162;2023-04-03T00:38:06;8.63;;;5.57;;
6947;SDS011;3513;47.664;9.162;2023-04-03T00:40:37;9.23;;;6.70;;
6947;SDS011;3513;47.664;9.162;2023-04-03T00:43:10;7.23;;;4.90;;
6947;SDS011;3513;47.664;9.162;2023-04-03T00:45:40;12.53;;;5.20;;
6947;SDS011;3513;47.664;9.162;2023-04-03T00:48:08;9.03;;;5.30;;
6947;SDS011;3513;47.664;9.162;2023-04-03T00:50:39;11.10;;;6.37;;
6947;SDS011;3513;47.664;9.162;2023-04-03T00:53:06;10.00;;;5.60;;
6947;SDS011;3513;47.664;9.162;2023-04-03T00:55:34;6.80;;;5.67;;
6947;SDS011;3513;47.664;9.162;2023-04-03T00:58:01;6.33;;;5.73;;
6947;SDS011;3513;47.664;9.162;2023-04-03T01:00:28;11.50;;;6.50;;
6947;SDS011;3513;47.664;9.162;2023-04-03T01:02:54;6.63;;;5.97;;
6947;SDS011;3513;47.664;9.162;2023-04-03T01:05:20;6.27;;;5.67;;
6947;SDS011;3513;47.664;9.162;2023-04-03T01:07:46;7.37;;;5.90;;
6947;SDS011;3513;47.664;9.162;2023-04-03T01:10:14;7.50;;;6.40;;
6947;SDS011;3513;47.664;9.162;2023-04-03T01:12:43;6.70;;;5.70;;
6947;SDS011;3513;47.664;9.162;2023-04-03T01:15:12;5.97;;;5.37;;
6947;SDS011;3513;47.664;9.162;2023-04-03T01:17:47;8.20;;;6.50;;
6947;SDS011;3513;47.664;9.162;2023-04-03T01:25:39;6.23;;;4.90;;
6947;SDS011;3513;47.664;9.162;2023-04-03T01:28:07;6.73;;;5.23;;
6947;SDS011;3513;47.664;9.162;2023-04-03T01:30:38;6.60;;;5.27;;
6947;SDS011;3513;47.664;9.162;2023-04-03T01:33:18;11.17;;;5.50;;
6947;SDS011;3513;47.664;9.162;2023-04-03T01:35:43;8.07;;;5.30;;
6947;SDS011;3513;47.664;9.162;2023-04-03T01:38:09;4.83;;;4.33;;
6947;SDS011;3513;47.664;9.162;2023-04-03T01:40:35;5.90;;;5.27;;
6947;SDS011;3513;47.664;9.162;2023-04-03T01:43:02;5.80;;;4.70;;
6947;SDS011;3513;47.664;9.162;2023-04-03T01:45:27;4.97;;;4.57;;
6947;SDS011;3513;47.664;9.162;2023-04-03T01:47:53;4.87;;;4.43;;
6947;SDS011;3513;47.664;9.162;2023-04-03T01:50:19;5.63;;;4.90;;
6947;SDS011;3513;47.664;9.162;2023-04-03T01:52:45;5.87;;;5.27;;
6947;SDS011;3513;47.664;9.162;2023-04-03T01:55:11;5.50;;;4.97;;
6947;SDS011;3513;47.664;9.162;2023-04-03T01:57:36;4.80;;;4.40;;
6947;SDS011;3513;47.664;9.162;2023-04-03T02:00:02;4.73;;;4.33;;
6947;SDS011;3513;47.664;9.162;2023-04-03T02:02:28;5.93;;;4.80;;
6947;SDS011;3513;47.664;9.162;2023-04-03T02:04:54;5.13;;;4.57;;
6947;SDS011;3513;47.664;9.162;2023-04-03T02:07:20;8.23;;;5.67;;
6947;SDS011;3513;47.664;9.162;2023-04-03T02:09:46;9.90;;;5.23;;
6947;SDS011;3513;47.664;9.162;2023-04-03T02:12:11;6.00;;;5.40;;
6947;SDS011;3513;47.664;9.162;2023-04-03T02:14:37;7.73;;;6.07;;
6947;SDS011;3513;47.664;9.162;2023-04-03T02:17:03;8.53;;;6.80;;
6947;SDS011;3513;47.664;9.162;2023-04-03T02:19:34;6.33;;;5.73;;
6947;SDS011;3513;47.664;9.162;2023-04-03T02:22:01;8.20;;;6.70;;
6947;SDS011;3513;47.664;9.162;2023-04-03T02:24:27;6.20;;;5.63;;
6947;SDS011;3513;47.664;9.162;2023-04-03T02:26:54;7.63;;;6.33;;
6947;SDS011;3513;47.664;9.162;2023-04-03T02:29:20;8.37;;;6.73;;
6947;SDS011;3513;47.664;9.162;2023-04-03T02:31:45;8.73;;;6.30;;
6947;SDS011;3513;47.664;9.162;2023-04-03T02:34:11;7.13;;;6.00;;
6947;SDS011;3513;47.664;9.162;2023-04-03T02:36:37;8.00;;;6.57;;
6947;SDS011;3513;47.664;9.162;2023-04-03T02:39:02;6.90;;;5.77;;
6947;SDS011;3513;47.664;9.162;2023-04-03T02:41:28;7.97;;;6.73;;
6947;SDS011;3513;47.664;9.162;2023-04-03T02:43:59;7.70;;;6.17;;
6947;SDS011;3513;47.664;9.162;2023-04-03T02:46:29;7.50;;;6.53;;
6947;SDS011;3513;47.664;9.162;2023-04-03T02:48:54;8.67;;;6.90;;
6947;SDS011;3513;47.664;9.162;2023-04-03T02:51:20;7.87;;;6.60;;
6947;SDS011;3513;47.664;9.162;2023-04-03T02:53:46;15.53;;;7.00;;
6947;SDS011;3513;47.664;9.162;2023-04-03T02:56:11;9.03;;;7.00;;
6947;SDS011;3513;47.664;9.162;2023-04-03T02:58:37;7.20;;;5.80;;
6947;SDS011;3513;47.664;9.162;2023-04-03T03:01:03;8.20;;;6.30;;
6947;SDS011;3513;47.664;9.162;2023-04-03T03:03:29;8.43;;;6.40;;
6947;SDS011;3513;47.664;9.162;2023-04-03T03:06:05;8.30;;;5.97;;
6947;SDS011;3513;47.664;9.162;2023-04-03T03:08:33;8.70;;;6.77;;
6947;SDS011;3513;47.664;9.162;2023-04-03T03:10:58;7.37;;;5.73;;
6947;SDS011;3513;47.664;9.162;2023-04-03T03:13:24;11.80;;;7.70;;
6947;SDS011;3513;47.664;9.162;2023-04-03T03:15:50;11.70;;;7.10;;
6947;SDS011;3513;47.664;9.162;2023-04-03T03:18:16;7.20;;;6.50;;
6947;SDS011;3513;47.664;9.162;2023-04-03T03:20:42;9.30;;;6.37;;
6947;SDS011;3513;47.664;9.162;2023-04-03T03:23:07;7.23;;;6.43;;
6947;SDS011;3513;47.664;9.162;2023-04-03T03:25:33;6.40;;;5.03;;
6947;SDS011;3513;47.664;9.162;2023-04-03T03:28:03;8.30;;;5.00;;
6947;SDS011;3513;47.664;9.162;2023-04-03T03:30:29;6.53;;;5.40;;
6947;SDS011;3513;47.664;9.162;2023-04-03T03:32:55;7.33;;;5.77;;
6947;SDS011;3513;47.664;9.162;2023-04-03T03:35:21;6.13;;;5.00;;
6947;SDS011;3513;47.664;9.162;2023-04-03T03:37:46;6.30;;;5.67;;
6947;SDS011;3513;47.664;9.162;2023-04-03T03:40:12;6.43;;;5.23;;
6947;SDS011;3513;47.664;9.162;2023-04-03T03:42:38;6.20;;;5.53;;
6947;SDS011;3513;47.664;9.162;2023-04-03T03:45:04;6.27;;;5.20;;
6947;SDS011;3513;47.664;9.162;2023-04-03T03:47:30;8.33;;;5.37;;
6947;SDS011;3513;47.664;9.162;2023-04-03T03:49:56;7.17;;;5.60;;
6947;SDS011;3513;47.664;9.162;2023-04-03T03:52:22;7.03;;;6.27;;
6947;SDS011;3513;47.664;9.162;2023-04-03T03:54:47;6.87;;;4.97;;
6947;SDS011;3513;47.664;9.162;2023-04-03T03:57:13;7.10;;;5.37;;
6947;SDS011;3513;47.664;9.162;2023-04-03T03:59:40;7.00;;;5.40;;
6947;SDS011;3513;47.664;9.162;2023-04-03T04:02:06;7.47;;;4.20;;
6947;SDS011;3513;47.664;9.162;2023-04-03T04:04:33;6.37;;;4.33;;
6947;SDS011;3513;47.664;9.162;2023-04-03T04:06:58;5.70;;;5.10;;
6947;SDS011;3513;47.664;9.162;2023-04-03T04:09:25;4.30;;;3.90;;
6947;SDS011;3513;47.664;9.162;2023-04-03T04:11:51;6.47;;;3.90;;
6947;SDS011;3513;47.664;9.162;2023-04-03T04:14:17;6.33;;;4.50;;
6947;SDS011;3513;47.664;9.162;2023-04-03T04:16:45;4.70;;;3.67;;
6947;SDS011;3513;47.664;9.162;2023-04-03T04:19:12;4.73;;;3.90;;
6947;SDS011;3513;47.664;9.162;2023-04-03T04:21:38;8.77;;;3.93;;
6947;SDS011;3513;47.664;9.162;2023-04-03T04:24:04;6.30;;;4.60;;
6947;SDS011;3513;47.664;9.162;2023-04-03T04:26:30;4.47;;;3.70;;
6947;SDS011;3513;47.664;9.162;2023-04-03T04:28:56;6.20;;;3.33;;
6947;SDS011;3513;47.664;9.162;2023-04-03T04:31:21;5.03;;;3.73;;
6947;SDS011;3513;47.664;9.162;2023-04-03T04:33:47;6.40;;;4.30;;
6947;SDS011;3513;47.664;9.162;2023-04-03T04:36:13;7.50;;;4.00;;
6947;SDS011;3513;47.664;9.162;2023-04-03T04:38:39;4.60;;;3.90;;
6947;SDS011;3513;47.664;9.162;2023-04-03T04:41:05;5.50;;;3.70;;
6947;SDS011;3513;47.664;9.162;2023-04-03T04:43:31;5.30;;;4.17;;
6947;SDS011;3513;47.664;9.162;2023-04-03T04:46:07;3.67;;;3.37;;
6947;SDS011;3513;47.664;9.162;2023-04-03T04:48:37;9.47;;;5.17;;
6947;SDS011;3513;47.664;9.162;2023-04-03T04:51:03;5.27;;;3.67;;
6947;SDS011;3513;47.664;9.162;2023-04-03T04:53:29;4.60;;;3.57;;
6947;SDS011;3513;47.664;9.162;2023-04-03T04:55:55;4.50;;;3.80;;
6947;SDS011;3513;47.664;9.162;2023-04-03T04:58:21;7.03;;;3.80;;
6947;SDS011;3513;47.664;9.162;2023-04-03T05:00:46;4.93;;;3.70;;
6947;SDS011;3513;47.664;9.162;2023-04-03T05:03:12;3.33;;;3.00;;
6947;SDS011;3513;47.664;9.162;2023-04-03T05:05:38;5.00;;;3.70;;
6947;SDS011;3513;47.664;9.162;2023-04-03T05:08:04;5.40;;;4.20;;
6947;SDS011;3513;47.664;9.162;2023-04-03T05:10:30;3.80;;;3.40;;
6947;SDS011;3513;47.664;9.162;2023-04-03T05:12:56;7.43;;;4.67;;
6947;SDS011;3513;47.664;9.162;2023-04-03T05:15:22;4.30;;;3.90;;
6947;SDS011;3513;47.664;9.162;2023-04-03T05:17:48;4.03;;;3.73;;
6947;SDS011;3513;47.664;9.162;2023-04-03T05:20:14;9.57;;;4.30;;
6947;SDS011;3513;47.664;9.162;2023-04-03T05:22:39;3.87;;;2.83;;
6947;SDS011;3513;47.664;9.162;2023-04-03T05:25:05;5.00;;;3.63;;
6947;SDS011;3513;47.664;9.162;2023-04-03T05:27:31;5.67;;;3.53;;
6947;SDS011;3513;47.664;9.162;2023-04-03T05:29:57;5.77;;;4.03;;
6947;SDS011;3513;47.664;9.162;2023-04-03T05:32:24;3.40;;;3.10;;
6947;SDS011;3513;47.664;9.162;2023-04-03T05:34:51;6.77;;;3.60;;
6947;SDS011;3513;47.664;9.162;2023-04-03T05:37:17;4.30;;;3.90;;
6947;SDS011;3513;47.664;9.162;2023-04-03T05:39:43;5.07;;;3.90;;
6947;SDS011;3513;47.664;9.162;2023-04-03T05:42:08;8.47;;;4.00;;
6947;SDS011;3513;47.664;9.162;2023-04-03T05:44:34;5.80;;;3.77;;
6947;SDS011;3513;47.664;9.162;2023-04-03T05:47:00;4.57;;;3.70;;
6947;SDS011;3513;47.664;9.162;2023-04-03T05:49:25;3.13;;;2.83;;
6947;SDS011;3513;47.664;9.162;2023-04-03T05:51:51;5.53;;;3.80;;
6947;SDS011;3513;47.664;9.162;2023-04-03T05:54:20;7.27;;;2.90;;
6947;SDS011;3513;47.664;9.162;2023-04-03T05:56:49;4.33;;;3.47;;
6947;SDS011;3513;47.664;9.162;2023-04-03T05:59:16;6.70;;;3.90;;
6947;SDS011;3513;47.664;9.162;2023-04-03T06:01:42;3.07;;;2.77;;
6947;SDS011;3513;47.664;9.162;2023-04-03T06:04:08;6.13;;;2.97;;
6947;SDS011;3513;47.664;9.162;2023-04-03T06:06:43;13.37;;;3.20;;
6947;SDS011;3513;47.664;9.162;2023-04-03T06:09:12;9.57;;;3.10;;
6947;SDS011;3513;47.664;9.162;2023-04-03T06:11:38;5.20;;;3.80;;
6947;SDS011;3513;47.664;9.162;2023-04-03T06:14:04;7.23;;;3.20;;
6947;SDS011;3513;47.664;9.162;2023-04-03T06:16:30;3.83;;;3.43;;
6947;SDS011;3513;47.664;9.162;2023-04-03T06:18:55;5.23;;;3.23;;
6947;SDS011;3513;47.664;9.162;2023-04-03T06:21:22;4.23;;;3.07;;
6947;SDS011;3513;47.664;9.162;2023-04-03T06:23:47;4.77;;;3.80;;
6947;SDS011;3513;47.664;9.162;2023-04-03T06:26:13;6.73;;;3.40;;
6947;SDS011;3513;47.664;9.162;2023-04-03T06:28:38;7.10;;;4.17;;
6947;SDS011;3513;47.664;9.162;2023-04-03T06:31:04;7.70;;;4.10;;
6947;SDS011;3513;47.664;9.162;2023-04-03T06:33:29;3.20;;;2.90;;
6947;SDS011;3513;47.664;9.162;2023-04-03T06:35:56;5.30;;;3.73;;
6947;SDS011;3513;47.664;9.162;2023-04-03T06:38:23;4.60;;;3.60;;
6947;SDS011;3513;47.664;9.162;2023-04-03T06:40:48;11.27;;;3.60;;
6947;SDS011;3513;47.664;9.162;2023-04-03T06:43:14;8.50;;;3.97;;
6947;SDS011;3513;47.664;9.162;2023-04-03T06:45:39;4.60;;;3.50;;
6947;SDS011;3513;47.664;9.162;2023-04-03T06:48:05;4.93;;;3.80;;
6947;SDS011;3513;47.664;9.162;2023-04-03T06:50:31;5.40;;;3.27;;
6947;SDS011;3513;47.664;9.162;2023-04-03T06:52:56;6.03;;;3.63;;
6947;SDS011;3513;47.664;9.162;2023-04-03T06:55:22;6.33;;;3.97;;
6947;SDS011;3513;47.664;9.162;2023-04-03T06:57:47;4.10;;;3.33;;
6947;SDS011;3513;47.664;9.162;2023-04-03T07:00:13;7.50;;;3.50;;
6947;SDS011;3513;47.664;9.162;2023-04-03T07:02:39;4.87;;;3.57;;
6947;SDS011;3513;47.664;9.162;2023-04-03T07:05:05;11.63;;;4.23;;
6947;SDS011;3513;47.664;9.162;2023-04-03T07:07:31;5.60;;;3.97;;
6947;SDS011;3513;47.664;9.162;2023-04-03T07:09:58;6.67;;;3.70;;
6947;SDS011;3513;47.664;9.162;2023-04-03T07:12:24;6.23;;;3.60;;
6947;SDS011;3513;47.664;9.162;2023-04-03T07:14:51;4.47;;;3.40;;
6947;SDS011;3513;47.664;9.162;2023-04-03T07:17:16;3.67;;;2.80;;
6947;SDS011;3513;47.664;9.162;2023-04-03T07:19:42;4.50;;;4.07;;
6947;SDS011;3513;47.664;9.162;2023-04-03T07:22:08;5.03;;;3.90;;
6947;SDS011;3513;47.664;9.162;2023-04-03T07:24:33;5.80;;;3.47;;
6947;SDS011;3513;47.664;9.162;2023-04-03T07:26:59;11.53;;;4.10;;
6947;SDS011;3513;47.664;9.162;2023-04-03T07:29:26;6.87;;;4.40;;
6947;SDS011;3513;47.664;9.162;2023-04-03T07:31:52;5.27;;;3.73;;
6947;SDS011;3513;47.664;9.162;2023-04-03T07:34:18;7.60;;;3.97;;
6947;SDS011;3513;47.664;9.162;2023-04-03T07:36:43;4.97;;;3.57;;
6947;SDS011;3513;47.664;9.162;2023-04-03T07:39:09;6.53;;;3.43;;
6947;SDS011;3513;47.664;9.162;2023-04-03T07:41:36;4.43;;;3.63;;
6947;SDS011;3513;47.664;9.162;2023-04-03T07:44:01;6.97;;;3.47;;
6947;SDS011;3513;47.664;9.162;2023-04-03T07:46:27;3.77;;;3.23;;
6947;SDS011;3513;47.664;9.162;2023-04-03T07:48:53;5.20;;;3.80;;
6947;SDS011;3513;47.664;9.162;2023-04-03T07:51:18;5.70;;;3.80;;
6947;SDS011;3513;47.664;9.162;2023-04-03T07:53:44;5.40;;;3.67;;
6947;SDS011;3513;47.664;9.162;2023-04-03T07:56:10;4.07;;;3.17;;
6947;SDS011;3513;47.664;9.162;2023-04-03T07:58:36;4.00;;;3.57;;
6947;SDS011;3513;47.664;9.162;2023-04-03T08:01:02;6.70;;;3.53;;
6947;SDS011;3513;47.664;9.162;2023-04-03T08:03:28;6.83;;;3.93;;
6947;SDS011;3513;47.664;9.162;2023-04-03T08:05:53;4.37;;;3.17;;
6947;SDS011;3513;47.664;9.162;2023-04-03T08:08:20;10.07;;;4.10;;
6947;SDS011;3513;47.664;9.162;2023-04-03T08:10:50;5.17;;;3.73;;
6947;SDS011;3513;47.664;9.162;2023-04-03T08:13:17;6.27;;;3.87;;
6947;SDS011;3513;47.664;9.162;2023-04-03T08:15:43;3.93;;;3.53;;
6947;SDS011;3513;47.664;9.162;2023-04-03T08:18:09;5.20;;;3.77;;
6947;SDS011;3513;47.664;9.162;2023-04-03T08:20:35;6.00;;;4.70;;
6947;SDS011;3513;47.664;9.162;2023-04-03T08:23:02;5.00;;;3.90;;
6947;SDS011;3513;47.664;9.162;2023-04-03T08:25:27;5.87;;;3.87;;
6947;SDS011;3513;47.664;9.162;2023-04-03T08:27:54;5.33;;;4.00;;
6947;SDS011;3513;47.664;9.162;2023-04-03T08:30:20;7.90;;;4.80;;
6947;SDS011;3513;47.664;9.162;2023-04-03T08:32:45;4.60;;;4.10;;
6947;SDS011;3513;47.664;9.162;2023-04-03T08:35:11;6.33;;;4.40;;
6947;SDS011;3513;47.664;9.162;2023-04-03T08:37:37;5.60;;;4.13;;
6947;SDS011;3513;47.664;9.162;2023-04-03T08:40:07;8.30;;;4.27;;
6947;SDS011;3513;47.664;9.162;2023-04-03T08:45:17;8.47;;;4.60;;
6947;SDS011;3513;47.664;9.162;2023-04-03T08:48:00;5.10;;;4.10;;
6947;SDS011;3513;47.664;9.162;2023-04-03T08:50:39;6.10;;;4.63;;
6947;SDS011;3513;47.664;9.162;2023-04-03T08:53:12;6.80;;;3.97;;
6947;SDS011;3513;47.664;9.162;2023-04-03T08:55:47;9.37;;;4.57;;
6947;SDS011;3513;47.664;9.162;2023-04-03T09:03:20;14.47;;;5.73;;
6947;SDS011;3513;47.664;9.162;2023-04-03T09:05:51;7.80;;;4.67;;
6947;SDS011;3513;47.664;9.162;2023-04-03T09:11:03;6.50;;;4.60;;
6947;SDS011;3513;47.664;9.162;2023-04-03T09:13:36;10.90;;;4.70;;
6947;SDS011;3513;47.664;9.162;2023-04-03T09:16:16;8.80;;;4.77;;
6947;SDS011;3513;47.664;9.162;2023-04-03T09:18:53;9.60;;;4.93;;
6947;SDS011;3513;47.664;9.162;2023-04-03T09:21:41;4.13;;;3.60;;
6947;SDS011;3513;47.664;9.162;2023-04-03T09:24:07;10.20;;;3.87;;
6947;SDS011;3513;47.664;9.162;2023-04-03T09:26:48;7.43;;;4.87;;
6947;SDS011;3513;47.664;9.162;2023-04-03T09:29:28;4.57;;;4.07;;
6947;SDS011;3513;47.664;9.162;2023-04-03T09:31:58;4.43;;;3.80;;
6947;SDS011;3513;47.664;9.162;2023-04-03T09:34:26;6.47;;;4.90;;
6947;SDS011;3513;47.664;9.162;2023-04-03T09:36:56;6.73;;;3.87;;
6947;SDS011;3513;47.664;9.162;2023-04-03T09:39:25;7.20;;;4.40;;
6947;SDS011;3513;47.664;9.162;2023-04-03T09:42:03;5.70;;;4.50;;
6947;SDS011;3513;47.664;9.162;2023-04-03T09:44:34;6.00;;;3.43;;
6947;SDS011;3513;47.664;9.162;2023-04-03T09:47:35;5.60;;;3.83;;
6947;SDS011;3513;47.664;9.162;2023-04-03T09:52:44;4.80;;;3.73;;
6947;SDS011;3513;47.664;9.162;2023-04-03T09:55:15;6.63;;;4.73;;
6947;SDS011;3513;47.664;9.162;2023-04-03T09:57:43;7.57;;;3.97;;
6947;SDS011;3513;47.664;9.162;2023-04-03T10:02:57;4.20;;;3.80;;
6947;SDS011;3513;47.664;9.162;2023-04-03T10:10:41;5.87;;;4.73;;
6947;SDS011;3513;47.664;9.162;2023-04-03T10:13:12;4.93;;;3.70;;
6947;SDS011;3513;47.664;9.162;2023-04-03T10:15:46;6.97;;;4.10;;
6947;SDS011;3513;47.664;9.162;2023-04-03T10:21:54;4.13;;;3.70;;
6947;SDS011;3513;47.664;9.162;2023-04-03T10:24:14;6.60;;;3.63;;
6947;SDS011;3513;47.664;9.162;2023-04-03T10:29:51;5.33;;;3.67;;
6947;SDS011;3513;47.664;9.162;2023-04-03T10:35:39;5.80;;;4.03;;
6947;SDS011;3513;47.664;9.162;2023-04-03T10:40:44;4.27;;;3.30;;
6947;SDS011;3513;47.664;9.162;2023-04-03T10:46:08;5.20;;;3.90;;
6947;SDS011;3513;47.664;9.162;2023-04-03T10:56:31;8.23;;;3.90;;
6947;SDS011;3513;47.664;9.162;2023-04-03T11:01:58;3.70;;;3.03;;
6947;SDS011;3513;47.664;9.162;2023-04-03T11:04:27;5.80;;;4.23;;
6947;SDS011;3513;47.664;9.162;2023-04-03T11:09:44;6.03;;;3.73;;
6947;SDS011;3513;47.664;9.162;2023-04-03T11:12:33;9.40;;;3.70;;
6947;SDS011;3513;47.664;9.162;2023-04-03T11:15:11;4.03;;;3.57;;
6947;SDS011;3513;47.664;9.162;2023-04-03T11:17:49;3.53;;;3.20;;
6947;SDS011;3513;47.664;9.162;2023-04-03T11:22:53;3.80;;;3.30;;
6947;SDS011;3513;47.664;9.162;2023-04-03T11:25:26;5.50;;;3.90;;
6947;SDS011;3513;47.664;9.162;2023-04-03T11:27:55;5.93;;;3.10;;
6947;SDS011;3513;47.664;9.162;2023-04-03T11:36:00;6.40;;;3.80;;
6947;SDS011;3513;47.664;9.162;2023-04-03T11:38:34;3.83;;;3.00;;
6947;SDS011;3513;47.664;9.162;2023-04-03T11:41:04;4.00;;;3.47;;
6947;SDS011;3513;47.664;9.162;2023-04-03T11:43:32;3.13;;;2.80;;
6947;SDS011;3513;47.664;9.162;2023-04-03T11:46:00;3.60;;;3.07;;
6947;SDS011;3513;47.664;9.162;2023-04-03T11:50:54;3.23;;;2.70;;
6947;SDS011;3513;47.664;9.162;2023-04-03T11:53:37;3.47;;;2.97;;
6947;SDS011;3513;47.664;9.162;2023-04-03T12:01:45;2.97;;;2.47;;
6947;SDS011;3513;47.664;9.162;2023-04-03T12:04:11;7.10;;;3.00;;
6947;SDS011;3513;47.664;9.162;2023-04-03T12:06:47;4.53;;;2.53;;
6947;SDS011;3513;47.664;9.162;2023-04-03T12:09:52;3.50;;;2.10;;
6947;SDS011;3513;47.664;9.162;2023-04-03T12:15:16;3.10;;;2.80;;
6947;SDS011;3513;47.664;9.162;2023-04-03T12:17:47;2.97;;;2.70;;
6947;SDS011;3513;47.664;9.162;2023-04-03T12:23:27;3.50;;;2.63;;
6947;SDS011;3513;47.664;9.162;2023-04-03T12:25:59;6.77;;;3.43;;
6947;SDS011;3513;47.664;9.162;2023-04-03T12:28:46;3.53;;;3.00;;
6947;SDS011;3513;47.664;9.162;2023-04-03T12:31:13;3.77;;;3.00;;
6947;SDS011;3513;47.664;9.162;2023-04-03T12:36:52;4.80;;;3.13;;
6947;SDS011;3513;47.664;9.162;2023-04-03T12:39:48;4.90;;;2.43;;
6947;SDS011;3513;47.664;9.162;2023-04-03T12:45:29;3.50;;;2.93;;
6947;SDS011;3513;47.664;9.162;2023-04-03T12:48:12;2.97;;;2.47;;
6947;SDS011;3513;47.664;9.162;2023-04-03T12:50:45;3.20;;;2.90;;
6947;SDS011;3513;47.664;9.162;2023-04-03T12:53:13;4.10;;;2.23;;
6947;SDS011;3513;47.664;9.162;2023-04-03T12:58:51;3.33;;;2.90;;
6947;SDS011;3513;47.664;9.162;2023-04-03T13:01:20;6.47;;;2.93;;
6947;SDS011;3513;47.664;9.162;2023-04-03T13:03:48;3.67;;;3.30;;
6947;SDS011;3513;47.664;9.162;2023-04-03T13:06:19;4.83;;;2.50;;
6947;SDS011;3513;47.664;9.162;2023-04-03T13:08:52;6.60;;;2.80;;
6947;SDS011;3513;47.664;9.162;2023-04-03T13:11:19;3.73;;;2.27;;
6947;SDS011;3513;47.664;9.162;2023-04-03T13:16:22;5.50;;;3.20;;
6947;SDS011;3513;47.664;9.162;2023-04-03T13:18:52;5.53;;;3.37;;
6947;SDS011;3513;47.664;9.162;2023-04-03T13:21:19;3.33;;;2.23;;
6947;SDS011;3513;47.664;9.162;2023-04-03T13:23:52;3.27;;;2.97;;
6947;SDS011;3513;47.664;9.162;2023-04-03T13:26:21;3.57;;;2.87;;
6947;SDS011;3513;47.664;9.162;2023-04-03T13:28:49;4.90;;;2.53;;
6947;SDS011;3513;47.664;9.162;2023-04-03T13:36:20;3.67;;;2.40;;
6947;SDS011;3513;47.664;9.162;2023-04-03T13:39:03;3.50;;;2.27;;
6947;SDS011;3513;47.664;9.162;2023-04-03T13:41:51;8.63;;;2.60;;
6947;SDS011;3513;47.664;9.162;2023-04-03T13:46:47;8.47;;;2.23;;
6947;SDS011;3513;47.664;9.162;2023-04-03T13:49:21;2.63;;;2.40;;
6947;SDS011;3513;47.664;9.162;2023-04-03T13:51:54;4.50;;;2.30;;
6947;SDS011;3513;47.664;9.162;2023-04-03T13:54:22;2.77;;;2.53;;
6947;SDS011;3513;47.664;9.162;2023-04-03T13:56:55;3.10;;;2.80;;
6947;SDS011;3513;47.664;9.162;2023-04-03T13:59:33;2.90;;;2.30;;
6947;SDS011;3513;47.664;9.162;2023-04-03T14:04:45;5.53;;;2.83;;
6947;SDS011;3513;47.664;9.162;2023-04-03T14:07:14;6.23;;;2.50;;
6947;SDS011;3513;47.664;9.162;2023-04-03T14:09:41;2.67;;;2.40;;
6947;SDS011;3513;47.664;9.162;2023-04-03T14:12:08;8.20;;;3.13;;
6947;SDS011;3513;47.664;9.162;2023-04-03T14:15:23;4.57;;;2.67;;
6947;SDS011;3513;47.664;9.162;2023-04-03T14:17:52;4.70;;;3.30;;
6947;SDS011;3513;47.664;9.162;2023-04-03T14:20:19;4.30;;;2.50;;
6947;SDS011;3513;47.664;9.162;2023-04-03T14:22:46;3.37;;;2.63;;
6947;SDS011;3513;47.664;9.162;2023-04-03T14:25:13;4.20;;;2.60;;
6947;SDS011;3513;47.664;9.162;2023-04-03T14:27:41;4.90;;;3.03;;
6947;SDS011;3513;47.664;9.162;2023-04-03T14:30:13;8.23;;;3.23;;
6947;SDS011;3513;47.664;9.162;2023-04-03T14:32:42;3.57;;;3.17;;
6947;SDS011;3513;47.664;9.162;2023-04-03T14:35:07;4.13;;;2.90;;
6947;SDS011;3513;47.664;9.162;2023-04-03T14:37:33;4.87;;;2.80;;
6947;SDS011;3513;47.664;9.162;2023-04-03T14:40:00;6.60;;;2.90;;
6947;SDS011;3513;47.664;9.162;2023-04-03T14:42:30;3.17;;;2.87;;
6947;SDS011;3513;47.664;9.162;2023-04-03T14:44:58;7.30;;;3.03;;
6947;SDS011;3513;47.664;9.162;2023-04-03T14:47:26;3.80;;;2.90;;
6947;SDS011;3513;47.664;9.162;2023-04-03T14:49:53;4.67;;;3.20;;
6947;SDS011;3513;47.664;9.162;2023-04-03T14:52:21;4.03;;;3.40;;
6947;SDS011;3513;47.664;9.162;2023-04-03T14:54:53;3.87;;;2.77;;
6947;SDS011;3513;47.664;9.162;2023-04-03T14:57:19;3.50;;;3.20;;
6947;SDS011;3513;47.664;9.162;2023-04-03T14:59:49;3.63;;;2.90;;
6947;SDS011;3513;47.664;9.162;2023-04-03T15:02:22;4.93;;;2.70;;
6947;SDS011;3513;47.664;9.162;2023-04-03T15:04:54;6.50;;;3.90;;
6947;SDS011;3513;47.664;9.162;2023-04-03T15:07:21;7.10;;;3.10;;
6947;SDS011;3513;47.664;9.162;2023-04-03T15:09:48;4.43;;;3.00;;
6947;SDS011;3513;47.664;9.162;2023-04-03T15:12:14;3.57;;;2.80;;
6947;SDS011;3513;47.664;9.162;2023-04-03T15:14:41;2.37;;;2.07;;
6947;SDS011;3513;47.664;9.162;2023-04-03T15:17:06;5.53;;;2.83;;
6947;SDS011;3513;47.664;9.162;2023-04-03T15:19:40;4.70;;;3.10;;
6947;SDS011;3513;47.664;9.162;2023-04-03T15:22:06;5.23;;;2.77;;
6947;SDS011;3513;47.664;9.162;2023-04-03T15:24:32;5.37;;;2.70;;
6947;SDS011;3513;47.664;9.162;2023-04-03T15:26:57;8.53;;;2.77;;
6947;SDS011;3513;47.664;9.162;2023-04-03T15:29:24;4.60;;;2.90;;
6947;SDS011;3513;47.664;9.162;2023-04-03T15:31:50;6.50;;;2.47;;
6947;SDS011;3513;47.664;9.162;2023-04-03T15:34:18;5.00;;;3.03;;
6947;SDS011;3513;47.664;9.162;2023-04-03T15:36:43;7.87;;;3.53;;
6947;SDS011;3513;47.664;9.162;2023-04-03T15:39:09;3.43;;;2.73;;
6947;SDS011;3513;47.664;9.162;2023-04-03T15:41:35;7.63;;;3.40;;
6947;SDS011;3513;47.664;9.162;2023-04-03T15:44:00;4.20;;;3.03;;
6947;SDS011;3513;47.664;9.162;2023-04-03T15:46:26;4.20;;;3.03;;
6947;SDS011;3513;47.664;9.162;2023-04-03T15:48:51;5.40;;;3.07;;
6947;SDS011;3513;47.664;9.162;2023-04-03T15:51:17;3.93;;;3.20;;
6947;SDS011;3513;47.664;9.162;2023-04-03T15:53:43;6.30;;;3.47;;
6947;SDS011;3513;47.664;9.162;2023-04-03T15:56:08;5.47;;;3.67;;
6947;SDS011;3513;47.664;9.162;2023-04-03T15:58:34;3.50;;;3.20;;
6947;SDS011;3513;47.664;9.162;2023-04-03T16:01:00;3.40;;;3.10;;
6947;SDS011;3513;47.664;9.162;2023-04-03T16:03:26;4.30;;;2.70;;
6947;SDS011;3513;47.664;9.162;2023-04-03T16:05:52;4.37;;;2.93;;
6947;SDS011;3513;47.664;9.162;2023-04-03T16:08:18;6.87;;;2.70;;
6947;SDS011;3513;47.664;9.162;2023-04-03T16:10:44;6.47;;;3.00;;
6947;SDS011;3513;47.664;9.162;2023-04-03T16:13:11;5.63;;;2.93;;
6947;SDS011;3513;47.664;9.162;2023-04-03T16:15:37;6.00;;;2.90;;
6947;SDS011;3513;47.664;9.162;2023-04-03T16:18:03;4.53;;;3.03;;
6947;SDS011;3513;47.664;9.162;2023-04-03T16:20:31;4.03;;;3.03;;
6947;SDS011;3513;47.664;9.162;2023-04-03T16:22:57;9.60;;;2.93;;
6947;SDS011;3513;47.664;9.162;2023-04-03T16:25:24;7.87;;;3.07;;
6947;SDS011;3513;47.664;9.162;2023-04-03T16:27:51;6.23;;;3.27;;
6947;SDS011;3513;47.664;9.162;2023-04-03T16:30:16;4.30;;;3.27;;
6947;SDS011;3513;47.664;9.162;2023-04-03T16:32:42;6.73;;;3.50;;
6947;SDS011;3513;47.664;9.162;2023-04-03T16:35:09;4.90;;;3.07;;
6947;SDS011;3513;47.664;9.162;2023-04-03T16:37:38;5.13;;;2.90;;
6947;SDS011;3513;47.664;9.162;2023-04-03T16:40:05;4.87;;;3.23;;
6947;SDS011;3513;47.664;9.162;2023-04-03T16:42:31;4.40;;;3.60;;
6947;SDS011;3513;47.664;9.162;2023-04-03T16:44:57;4.57;;;3.37;;
6947;SDS011;3513;47.664;9.162;2023-04-03T16:47:25;3.53;;;3.23;;
6947;SDS011;3513;47.664;9.162;2023-04-03T16:49:50;6.10;;;3.37;;
6947;SDS011;3513;47.664;9.162;2023-04-03T16:52:16;5.43;;;3.40;;
6947;SDS011;3513;47.664;9.162;2023-04-03T16:54:41;8.80;;;3.53;;
6947;SDS011;3513;47.664;9.162;2023-04-03T16:57:07;9.53;;;4.20;;
6947;SDS011;3513;47.664;9.162;2023-04-03T16:59:32;3.43;;;3.07;;
6947;SDS011;3513;47.664;9.162;2023-04-03T17:01:58;5.67;;;3.30;;